sensor_id;sensor_type;location;lat;lon;timestamp;P1;durP1;ratioP1;P2;durP2;ratioP2
18661;SDS011;61528;49.456;11.098;2023-04-24T00:01:48;2.40;;;1.70;;
18661;SDS011;61528;49.456;11.098;2023-04-24T00:04:15;1.73;;;1.63;;
18661;SDS011;61528;49.456;11.098;2023-04-24T00:06:42;3.33;;;1.97;;
18661;SDS011;61528;49.456;11.098;2023-04-24T00:09:09;2.57;;;1.90;;
18661;SDS011;61528;49.456;11.098;2023-04-24T00:11:35;3.23;;;1.90;;
18661;SDS011;61528;49.456;11.098;2023-04-24T00:14:02;2.07;;;1.60;;
18661;SDS011;61528;49.456;11.098;2023-04-24T00:16:28;2.17;;;1.97;;
18661;SDS011;61528;49.456;11.098;2023-04-24T00:18:54;3.73;;;1.87;;
18661;SDS011;61528;49.456;11.098;2023-04-24T00:21:21;2.80;;;1.90;;
18661;SDS011;61528;49.456;11.098;2023-04-24T00:23:50;2.27;;;1.80;;
18661;SDS011;61528;49.456;11.098;2023-04-24T00:26:17;5.03;;;1.83;;
18661;SDS011;61528;49.456;11.098;2023-04-24T00:28:43;2.20;;;2.00;;
18661;SDS011;61528;49.456;11.098;2023-04-24T00:31:09;2.33;;;1.80;;
18661;SDS011;61528;49.456;11.098;2023-04-24T00:33:35;3.13;;;1.73;;
18661;SDS011;61528;49.456;11.098;2023-04-24T00:36:02;1.93;;;1.73;;
18661;SDS011;61528;49.456;11.098;2023-04-24T00:38:28;1.93;;;1.80;;
18661;SDS011;61528;49.456;11.098;2023-04-24T00:40:54;2.20;;;1.80;;
18661;SDS011;61528;49.456;11.098;2023-04-24T00:43:21;1.60;;;1.50;;
18661;SDS011;61528;49.456;11.098;2023-04-24T00:45:47;2.80;;;1.83;;
18661;SDS011;61528;49.456;11.098;2023-04-24T00:48:13;2.50;;;2.07;;
18661;SDS011;61528;49.456;11.098;2023-04-24T00:50:40;2.30;;;1.80;;
18661;SDS011;61528;49.456;11.098;2023-04-24T00:53:06;1.93;;;1.63;;
18661;SDS011;61528;49.456;11.098;2023-04-24T00:55:33;2.33;;;1.90;;
18661;SDS011;61528;49.456;11.098;2023-04-24T00:58:00;2.13;;;1.60;;
18661;SDS011;61528;49.456;11.098;2023-04-24T01:00:26;2.60;;;1.70;;
18661;SDS011;61528;49.456;11.098;2023-04-24T01:02:53;2.00;;;1.90;;
18661;SDS011;61528;49.456;11.098;2023-04-24T01:05:19;2.70;;;1.70;;
18661;SDS011;61528;49.456;11.098;2023-04-24T01:07:46;1.57;;;1.47;;
18661;SDS011;61528;49.456;11.098;2023-04-24T01:10:14;2.87;;;1.67;;
18661;SDS011;61528;49.456;11.098;2023-04-24T01:12:42;2.17;;;1.70;;
18661;SDS011;61528;49.456;11.098;2023-04-24T01:15:09;2.20;;;1.77;;
18661;SDS011;61528;49.456;11.098;2023-04-24T01:17:35;2.43;;;2.13;;
18661;SDS011;61528;49.456;11.098;2023-04-24T01:20:01;1.70;;;1.60;;
18661;SDS011;61528;49.456;11.098;2023-04-24T01:22:31;3.17;;;2.00;;
18661;SDS011;61528;49.456;11.098;2023-04-24T01:24:58;4.80;;;1.80;;
18661;SDS011;61528;49.456;11.098;2023-04-24T01:27:24;2.00;;;1.80;;
18661;SDS011;61528;49.456;11.098;2023-04-24T01:29:50;2.03;;;1.80;;
18661;SDS011;61528;49.456;11.098;2023-04-24T01:32:17;1.70;;;1.60;;
18661;SDS011;61528;49.456;11.098;2023-04-24T01:34:43;3.97;;;1.83;;
18661;SDS011;61528;49.456;11.098;2023-04-24T01:37:10;3.63;;;1.80;;
18661;SDS011;61528;49.456;11.098;2023-04-24T01:39:36;2.30;;;2.10;;
18661;SDS011;61528;49.456;11.098;2023-04-24T01:42:04;3.73;;;2.17;;
18661;SDS011;61528;49.456;11.098;2023-04-24T01:44:30;2.77;;;1.67;;
18661;SDS011;61528;49.456;11.098;2023-04-24T01:46:56;2.87;;;1.70;;
18661;SDS011;61528;49.456;11.098;2023-04-24T01:49:22;2.53;;;1.60;;
18661;SDS011;61528;49.456;11.098;2023-04-24T01:51:49;4.10;;;1.90;;
18661;SDS011;61528;49.456;11.098;2023-04-24T01:54:15;1.80;;;1.70;;
18661;SDS011;61528;49.456;11.098;2023-04-24T01:56:42;2.30;;;1.87;;
18661;SDS011;61528;49.456;11.098;2023-04-24T01:59:12;2.43;;;1.80;;
18661;SDS011;61528;49.456;11.098;2023-04-24T02:01:38;2.67;;;1.63;;
18661;SDS011;61528;49.456;11.098;2023-04-24T02:04:05;1.87;;;1.77;;
18661;SDS011;61528;49.456;11.098;2023-04-24T02:06:31;2.13;;;1.80;;
18661;SDS011;61528;49.456;11.098;2023-04-24T02:08:58;4.00;;;1.67;;
18661;SDS011;61528;49.456;11.098;2023-04-24T02:11:24;2.27;;;1.70;;
18661;SDS011;61528;49.456;11.098;2023-04-24T02:13:51;2.00;;;1.70;;
18661;SDS011;61528;49.456;11.098;2023-04-24T02:16:17;1.70;;;1.60;;
18661;SDS011;61528;49.456;11.098;2023-04-24T02:18:44;3.17;;;1.80;;
18661;SDS011;61528;49.456;11.098;2023-04-24T02:21:10;1.83;;;1.63;;
18661;SDS011;61528;49.456;11.098;2023-04-24T02:23:36;1.80;;;1.60;;
18661;SDS011;61528;49.456;11.098;2023-04-24T02:26:02;2.30;;;1.70;;
18661;SDS011;61528;49.456;11.098;2023-04-24T02:28:29;2.77;;;1.43;;
18661;SDS011;61528;49.456;11.098;2023-04-24T02:30:55;2.40;;;1.60;;
18661;SDS011;61528;49.456;11.098;2023-04-24T02:33:21;2.03;;;1.40;;
18661;SDS011;61528;49.456;11.098;2023-04-24T02:35:48;2.30;;;1.47;;
18661;SDS011;61528;49.456;11.098;2023-04-24T02:38:14;2.67;;;1.50;;
18661;SDS011;61528;49.456;11.098;2023-04-24T02:40:40;4.27;;;1.70;;
18661;SDS011;61528;49.456;11.098;2023-04-24T02:43:06;2.20;;;1.50;;
18661;SDS011;61528;49.456;11.098;2023-04-24T02:45:32;1.57;;;1.47;;
18661;SDS011;61528;49.456;11.098;2023-04-24T02:47:59;3.00;;;1.83;;
18661;SDS011;61528;49.456;11.098;2023-04-24T02:50:26;3.80;;;1.63;;
18661;SDS011;61528;49.456;11.098;2023-04-24T02:52:52;1.77;;;1.30;;
18661;SDS011;61528;49.456;11.098;2023-04-24T02:55:18;3.33;;;1.70;;
18661;SDS011;61528;49.456;11.098;2023-04-24T02:57:45;1.40;;;1.30;;
18661;SDS011;61528;49.456;11.098;2023-04-24T03:00:11;1.40;;;1.30;;
18661;SDS011;61528;49.456;11.098;2023-04-24T03:02:38;4.27;;;2.00;;
18661;SDS011;61528;49.456;11.098;2023-04-24T03:05:04;1.63;;;1.40;;
18661;SDS011;61528;49.456;11.098;2023-04-24T03:07:31;2.50;;;1.60;;
18661;SDS011;61528;49.456;11.098;2023-04-24T03:09:57;1.50;;;1.40;;
18661;SDS011;61528;49.456;11.098;2023-04-24T03:12:24;2.23;;;1.43;;
18661;SDS011;61528;49.456;11.098;2023-04-24T03:14:50;1.50;;;1.40;;
18661;SDS011;61528;49.456;11.098;2023-04-24T03:17:17;1.90;;;1.27;;
18661;SDS011;61528;49.456;11.098;2023-04-24T03:19:43;3.10;;;1.57;;
18661;SDS011;61528;49.456;11.098;2023-04-24T03:22:09;1.63;;;1.53;;
18661;SDS011;61528;49.456;11.098;2023-04-24T03:24:36;1.30;;;1.20;;
18661;SDS011;61528;49.456;11.098;2023-04-24T03:27:02;2.47;;;1.40;;
18661;SDS011;61528;49.456;11.098;2023-04-24T03:29:29;1.67;;;1.53;;
18661;SDS011;61528;49.456;11.098;2023-04-24T03:31:55;2.50;;;1.80;;
18661;SDS011;61528;49.456;11.098;2023-04-24T03:34:21;1.87;;;1.77;;
18661;SDS011;61528;49.456;11.098;2023-04-24T03:36:47;1.80;;;1.70;;
18661;SDS011;61528;49.456;11.098;2023-04-24T03:39:14;2.27;;;1.50;;
18661;SDS011;61528;49.456;11.098;2023-04-24T03:41:40;1.67;;;1.50;;
18661;SDS011;61528;49.456;11.098;2023-04-24T03:44:06;2.10;;;1.70;;
18661;SDS011;61528;49.456;11.098;2023-04-24T03:46:32;1.70;;;1.60;;
18661;SDS011;61528;49.456;11.098;2023-04-24T03:48:59;2.00;;;1.80;;
18661;SDS011;61528;49.456;11.098;2023-04-24T03:51:25;1.80;;;1.70;;
18661;SDS011;61528;49.456;11.098;2023-04-24T03:53:53;1.70;;;1.60;;
18661;SDS011;61528;49.456;11.098;2023-04-24T03:56:19;2.20;;;1.47;;
18661;SDS011;61528;49.456;11.098;2023-04-24T03:58:45;2.43;;;1.90;;
18661;SDS011;61528;49.456;11.098;2023-04-24T04:01:12;3.23;;;2.00;;
18661;SDS011;61528;49.456;11.098;2023-04-24T04:03:38;2.27;;;1.53;;
18661;SDS011;61528;49.456;11.098;2023-04-24T04:06:05;3.63;;;1.73;;
18661;SDS011;61528;49.456;11.098;2023-04-24T04:08:31;4.70;;;1.70;;
18661;SDS011;61528;49.456;11.098;2023-04-24T04:10:57;1.90;;;1.67;;
18661;SDS011;61528;49.456;11.098;2023-04-24T04:13:23;2.93;;;2.10;;
18661;SDS011;61528;49.456;11.098;2023-04-24T04:15:50;1.83;;;1.70;;
18661;SDS011;61528;49.456;11.098;2023-04-24T04:18:16;2.87;;;1.80;;
18661;SDS011;61528;49.456;11.098;2023-04-24T04:20:43;1.77;;;1.67;;
18661;SDS011;61528;49.456;11.098;2023-04-24T04:23:09;2.80;;;1.97;;
18661;SDS011;61528;49.456;11.098;2023-04-24T04:25:35;2.40;;;2.20;;
18661;SDS011;61528;49.456;11.098;2023-04-24T04:28:01;2.33;;;1.90;;
18661;SDS011;61528;49.456;11.098;2023-04-24T04:30:27;2.30;;;1.53;;
18661;SDS011;61528;49.456;11.098;2023-04-24T04:32:57;1.50;;;1.40;;
18661;SDS011;61528;49.456;11.098;2023-04-24T04:35:24;2.03;;;1.60;;
18661;SDS011;61528;49.456;11.098;2023-04-24T04:37:50;2.43;;;2.10;;
18661;SDS011;61528;49.456;11.098;2023-04-24T04:40:16;1.90;;;1.73;;
18661;SDS011;61528;49.456;11.098;2023-04-24T04:42:42;2.73;;;2.20;;
18661;SDS011;61528;49.456;11.098;2023-04-24T04:45:11;2.47;;;1.80;;
18661;SDS011;61528;49.456;11.098;2023-04-24T04:47:37;2.10;;;1.77;;
18661;SDS011;61528;49.456;11.098;2023-04-24T04:50:04;2.03;;;1.83;;
18661;SDS011;61528;49.456;11.098;2023-04-24T04:52:31;2.57;;;1.80;;
18661;SDS011;61528;49.456;11.098;2023-04-24T04:54:57;3.37;;;2.63;;
18661;SDS011;61528;49.456;11.098;2023-04-24T04:57:23;2.57;;;2.00;;
18661;SDS011;61528;49.456;11.098;2023-04-24T04:59:49;2.67;;;2.10;;
18661;SDS011;61528;49.456;11.098;2023-04-24T05:02:16;4.73;;;2.37;;
18661;SDS011;61528;49.456;11.098;2023-04-24T05:04:42;3.13;;;2.30;;
18661;SDS011;61528;49.456;11.098;2023-04-24T05:07:08;3.20;;;2.30;;
18661;SDS011;61528;49.456;11.098;2023-04-24T05:09:34;3.43;;;2.70;;
18661;SDS011;61528;49.456;11.098;2023-04-24T05:12:00;3.70;;;2.77;;
18661;SDS011;61528;49.456;11.098;2023-04-24T05:14:27;3.53;;;3.10;;
18661;SDS011;61528;49.456;11.098;2023-04-24T05:16:53;3.03;;;2.43;;
18661;SDS011;61528;49.456;11.098;2023-04-24T05:19:19;4.40;;;2.70;;
18661;SDS011;61528;49.456;11.098;2023-04-24T05:21:45;4.00;;;2.40;;
18661;SDS011;61528;49.456;11.098;2023-04-24T05:24:11;3.10;;;2.60;;
18661;SDS011;61528;49.456;11.098;2023-04-24T05:26:38;4.50;;;2.40;;
18661;SDS011;61528;49.456;11.098;2023-04-24T05:29:04;3.43;;;2.67;;
18661;SDS011;61528;49.456;11.098;2023-04-24T05:31:30;4.27;;;2.43;;
18661;SDS011;61528;49.456;11.098;2023-04-24T05:33:57;3.63;;;2.53;;
18661;SDS011;61528;49.456;11.098;2023-04-24T05:36:23;4.20;;;2.40;;
18661;SDS011;61528;49.456;11.098;2023-04-24T05:38:49;4.63;;;2.40;;
18661;SDS011;61528;49.456;11.098;2023-04-24T05:41:15;3.23;;;2.47;;
18661;SDS011;61528;49.456;11.098;2023-04-24T05:43:41;2.50;;;2.30;;
18661;SDS011;61528;49.456;11.098;2023-04-24T05:46:07;5.10;;;2.53;;
18661;SDS011;61528;49.456;11.098;2023-04-24T05:48:34;4.23;;;2.97;;
18661;SDS011;61528;49.456;11.098;2023-04-24T05:51:00;5.00;;;2.70;;
18661;SDS011;61528;49.456;11.098;2023-04-24T05:53:26;5.10;;;3.10;;
18661;SDS011;61528;49.456;11.098;2023-04-24T05:55:52;3.93;;;2.67;;
18661;SDS011;61528;49.456;11.098;2023-04-24T05:58:19;3.13;;;2.40;;
18661;SDS011;61528;49.456;11.098;2023-04-24T06:00:45;2.97;;;2.63;;
18661;SDS011;61528;49.456;11.098;2023-04-24T06:03:11;4.57;;;2.60;;
18661;SDS011;61528;49.456;11.098;2023-04-24T06:05:38;5.13;;;2.33;;
18661;SDS011;61528;49.456;11.098;2023-04-24T06:08:04;3.30;;;2.60;;
18661;SDS011;61528;49.456;11.098;2023-04-24T06:10:31;3.30;;;2.53;;
18661;SDS011;61528;49.456;11.098;2023-04-24T06:12:57;2.93;;;2.30;;
18661;SDS011;61528;49.456;11.098;2023-04-24T06:15:26;4.67;;;2.40;;
18661;SDS011;61528;49.456;11.098;2023-04-24T06:17:53;3.00;;;2.60;;
18661;SDS011;61528;49.456;11.098;2023-04-24T06:20:19;4.77;;;3.20;;
18661;SDS011;61528;49.456;11.098;2023-04-24T06:22:45;3.10;;;2.80;;
18661;SDS011;61528;49.456;11.098;2023-04-24T06:25:11;5.00;;;2.60;;
18661;SDS011;61528;49.456;11.098;2023-04-24T06:27:37;3.10;;;2.50;;
18661;SDS011;61528;49.456;11.098;2023-04-24T06:30:04;6.57;;;2.47;;
18661;SDS011;61528;49.456;11.098;2023-04-24T06:32:31;3.00;;;2.50;;
18661;SDS011;61528;49.456;11.098;2023-04-24T06:34:57;4.57;;;2.27;;
18661;SDS011;61528;49.456;11.098;2023-04-24T06:37:23;2.67;;;1.93;;
18661;SDS011;61528;49.456;11.098;2023-04-24T06:39:50;3.23;;;2.57;;
18661;SDS011;61528;49.456;11.098;2023-04-24T06:42:16;3.20;;;2.47;;
18661;SDS011;61528;49.456;11.098;2023-04-24T06:44:42;4.90;;;3.00;;
18661;SDS011;61528;49.456;11.098;2023-04-24T06:47:09;2.47;;;2.27;;
18661;SDS011;61528;49.456;11.098;2023-04-24T06:49:37;2.80;;;1.90;;
18661;SDS011;61528;49.456;11.098;2023-04-24T06:52:03;2.50;;;1.40;;
18661;SDS011;61528;49.456;11.098;2023-04-24T06:54:30;1.70;;;1.40;;
18661;SDS011;61528;49.456;11.098;2023-04-24T06:56:57;2.13;;;1.60;;
18661;SDS011;61528;49.456;11.098;2023-04-24T06:59:23;3.30;;;1.33;;
18661;SDS011;61528;49.456;11.098;2023-04-24T07:01:50;2.43;;;1.23;;
18661;SDS011;61528;49.456;11.098;2023-04-24T07:04:16;1.87;;;1.33;;
18661;SDS011;61528;49.456;11.098;2023-04-24T07:06:44;1.80;;;1.37;;
18661;SDS011;61528;49.456;11.098;2023-04-24T07:09:11;3.37;;;1.20;;
18661;SDS011;61528;49.456;11.098;2023-04-24T07:11:38;2.17;;;1.23;;
18661;SDS011;61528;49.456;11.098;2023-04-24T07:14:08;2.03;;;1.27;;
18661;SDS011;61528;49.456;11.098;2023-04-24T07:16:34;1.07;;;1.00;;
18661;SDS011;61528;49.456;11.098;2023-04-24T07:19:01;1.33;;;1.17;;
18661;SDS011;61528;49.456;11.098;2023-04-24T07:21:27;2.40;;;1.30;;
18661;SDS011;61528;49.456;11.098;2023-04-24T07:23:53;2.10;;;1.10;;
18661;SDS011;61528;49.456;11.098;2023-04-24T07:26:22;2.47;;;1.20;;
18661;SDS011;61528;49.456;11.098;2023-04-24T07:28:49;1.57;;;1.10;;
18661;SDS011;61528;49.456;11.098;2023-04-24T07:31:15;1.33;;;1.00;;
18661;SDS011;61528;49.456;11.098;2023-04-24T07:33:41;1.20;;;1.07;;
18661;SDS011;61528;49.456;11.098;2023-04-24T07:38:49;2.00;;;1.10;;
18661;SDS011;61528;49.456;11.098;2023-04-24T07:41:25;1.70;;;1.60;;
18661;SDS011;61528;49.456;11.098;2023-04-24T07:43:54;2.27;;;1.50;;
18661;SDS011;61528;49.456;11.098;2023-04-24T07:46:25;2.53;;;1.27;;
18661;SDS011;61528;49.456;11.098;2023-04-24T07:48:55;5.23;;;3.60;;
18661;SDS011;61528;49.456;11.098;2023-04-24T07:51:22;3.97;;;3.00;;
18661;SDS011;61528;49.456;11.098;2023-04-24T07:53:58;2.73;;;1.50;;
18661;SDS011;61528;49.456;11.098;2023-04-24T07:56:25;2.07;;;1.20;;
18661;SDS011;61528;49.456;11.098;2023-04-24T08:01:46;1.63;;;1.20;;
18661;SDS011;61528;49.456;11.098;2023-04-24T08:04:16;1.93;;;1.53;;
18661;SDS011;61528;49.456;11.098;2023-04-24T08:06:43;2.10;;;1.70;;
18661;SDS011;61528;49.456;11.098;2023-04-24T08:09:15;1.50;;;1.40;;
18661;SDS011;61528;49.456;11.098;2023-04-24T08:11:44;1.50;;;1.40;;
18661;SDS011;61528;49.456;11.098;2023-04-24T08:14:21;3.70;;;1.67;;
18661;SDS011;61528;49.456;11.098;2023-04-24T08:16:48;1.77;;;1.40;;
18661;SDS011;61528;49.456;11.098;2023-04-24T08:19:14;2.03;;;1.60;;
18661;SDS011;61528;49.456;11.098;2023-04-24T08:21:41;2.37;;;2.13;;
18661;SDS011;61528;49.456;11.098;2023-04-24T08:24:07;1.70;;;1.60;;
18661;SDS011;61528;49.456;11.098;2023-04-24T08:26:33;1.80;;;1.70;;
18661;SDS011;61528;49.456;11.098;2023-04-24T08:29:05;2.57;;;2.00;;
18661;SDS011;61528;49.456;11.098;2023-04-24T08:31:32;4.83;;;2.27;;
18661;SDS011;61528;49.456;11.098;2023-04-24T08:33:58;2.67;;;2.03;;
18661;SDS011;61528;49.456;11.098;2023-04-24T08:36:27;2.33;;;1.97;;
18661;SDS011;61528;49.456;11.098;2023-04-24T08:38:53;3.10;;;2.07;;
18661;SDS011;61528;49.456;11.098;2023-04-24T08:41:20;2.33;;;2.13;;
18661;SDS011;61528;49.456;11.098;2023-04-24T08:43:47;3.63;;;2.50;;
18661;SDS011;61528;49.456;11.098;2023-04-24T08:46:15;4.07;;;2.33;;
18661;SDS011;61528;49.456;11.098;2023-04-24T08:48:50;2.77;;;2.30;;
18661;SDS011;61528;49.456;11.098;2023-04-24T08:51:17;3.80;;;2.50;;
18661;SDS011;61528;49.456;11.098;2023-04-24T08:53:44;2.53;;;2.10;;
18661;SDS011;61528;49.456;11.098;2023-04-24T08:56:11;3.77;;;2.57;;
18661;SDS011;61528;49.456;11.098;2023-04-24T08:58:40;2.37;;;2.17;;
18661;SDS011;61528;49.456;11.098;2023-04-24T09:01:07;1.83;;;1.73;;
18661;SDS011;61528;49.456;11.098;2023-04-24T09:03:34;2.50;;;2.30;;
18661;SDS011;61528;49.456;11.098;2023-04-24T09:08:46;2.10;;;1.90;;
18661;SDS011;61528;49.456;11.098;2023-04-24T09:11:13;2.13;;;1.90;;
18661;SDS011;61528;49.456;11.098;2023-04-24T09:13:39;1.90;;;1.80;;
18661;SDS011;61528;49.456;11.098;2023-04-24T09:16:06;2.53;;;2.10;;
18661;SDS011;61528;49.456;11.098;2023-04-24T09:18:32;3.87;;;1.80;;
18661;SDS011;61528;49.456;11.098;2023-04-24T09:21:01;2.03;;;1.90;;
18661;SDS011;61528;49.456;11.098;2023-04-24T09:23:31;2.20;;;2.00;;
18661;SDS011;61528;49.456;11.098;2023-04-24T09:25:58;2.97;;;2.10;;
18661;SDS011;61528;49.456;11.098;2023-04-24T09:28:34;2.30;;;2.10;;
18661;SDS011;61528;49.456;11.098;2023-04-24T09:33:33;2.50;;;2.03;;
18661;SDS011;61528;49.456;11.098;2023-04-24T09:35:59;2.30;;;1.70;;
18661;SDS011;61528;49.456;11.098;2023-04-24T09:38:32;1.93;;;1.70;;
18661;SDS011;61528;49.456;11.098;2023-04-24T09:40:59;2.20;;;2.00;;
18661;SDS011;61528;49.456;11.098;2023-04-24T09:43:28;2.00;;;1.67;;
18661;SDS011;61528;49.456;11.098;2023-04-24T09:45:57;3.10;;;2.03;;
18661;SDS011;61528;49.456;11.098;2023-04-24T09:48:34;2.63;;;2.00;;
18661;SDS011;61528;49.456;11.098;2023-04-24T09:51:01;2.63;;;1.90;;
18661;SDS011;61528;49.456;11.098;2023-04-24T09:53:28;1.90;;;1.40;;
18661;SDS011;61528;49.456;11.098;2023-04-24T09:55:55;1.50;;;1.40;;
18661;SDS011;61528;49.456;11.098;2023-04-24T09:58:25;1.70;;;1.50;;
18661;SDS011;61528;49.456;11.098;2023-04-24T10:00:54;1.80;;;1.60;;
18661;SDS011;61528;49.456;11.098;2023-04-24T10:03:25;1.23;;;1.13;;
18661;SDS011;61528;49.456;11.098;2023-04-24T10:05:52;1.20;;;1.10;;
18661;SDS011;61528;49.456;11.098;2023-04-24T10:08:19;3.10;;;1.33;;
18661;SDS011;61528;49.456;11.098;2023-04-24T10:10:46;1.53;;;1.43;;
18661;SDS011;61528;49.456;11.098;2023-04-24T10:13:13;3.63;;;1.70;;
18661;SDS011;61528;49.456;11.098;2023-04-24T10:15:41;1.43;;;1.13;;
18661;SDS011;61528;49.456;11.098;2023-04-24T10:18:07;2.63;;;1.33;;
18661;SDS011;61528;49.456;11.098;2023-04-24T10:20:35;1.43;;;1.33;;
18661;SDS011;61528;49.456;11.098;2023-04-24T10:23:01;1.00;;;1.00;;
18661;SDS011;61528;49.456;11.098;2023-04-24T10:25:28;1.93;;;1.20;;
18661;SDS011;61528;49.456;11.098;2023-04-24T10:27:56;2.90;;;1.10;;
18661;SDS011;61528;49.456;11.098;2023-04-24T10:30:26;1.20;;;0.90;;
18661;SDS011;61528;49.456;11.098;2023-04-24T10:32:52;1.57;;;1.00;;
18661;SDS011;61528;49.456;11.098;2023-04-24T10:35:22;1.27;;;1.00;;
18661;SDS011;61528;49.456;11.098;2023-04-24T10:40:36;0.80;;;0.80;;
18661;SDS011;61528;49.456;11.098;2023-04-24T10:43:06;3.90;;;1.03;;
18661;SDS011;61528;49.456;11.098;2023-04-24T10:48:26;2.43;;;1.40;;
18661;SDS011;61528;49.456;11.098;2023-04-24T10:50:52;2.67;;;1.10;;
18661;SDS011;61528;49.456;11.098;2023-04-24T10:59:01;1.00;;;0.90;;
18661;SDS011;61528;49.456;11.098;2023-04-24T11:01:28;1.37;;;1.07;;
18661;SDS011;61528;49.456;11.098;2023-04-24T11:04:02;1.67;;;0.90;;
18661;SDS011;61528;49.456;11.098;2023-04-24T11:11:30;1.43;;;0.90;;
18661;SDS011;61528;49.456;11.098;2023-04-24T11:16:27;0.93;;;0.87;;
18661;SDS011;61528;49.456;11.098;2023-04-24T11:19:06;1.73;;;1.20;;
18661;SDS011;61528;49.456;11.098;2023-04-24T11:21:39;2.83;;;0.80;;
18661;SDS011;61528;49.456;11.098;2023-04-24T11:26:53;1.17;;;1.00;;
18661;SDS011;61528;49.456;11.098;2023-04-24T11:29:20;1.43;;;1.10;;
18661;SDS011;61528;49.456;11.098;2023-04-24T11:31:47;2.10;;;1.50;;
18661;SDS011;61528;49.456;11.098;2023-04-24T11:34:16;2.53;;;1.30;;
18661;SDS011;61528;49.456;11.098;2023-04-24T11:36:46;1.23;;;1.20;;
18661;SDS011;61528;49.456;11.098;2023-04-24T11:39:13;1.40;;;1.30;;
18661;SDS011;61528;49.456;11.098;2023-04-24T11:41:39;1.03;;;1.03;;
18661;SDS011;61528;49.456;11.098;2023-04-24T11:44:06;2.37;;;1.53;;
18661;SDS011;61528;49.456;11.098;2023-04-24T11:46:32;2.40;;;1.40;;
18661;SDS011;61528;49.456;11.098;2023-04-24T11:48:59;4.60;;;1.60;;
18661;SDS011;61528;49.456;11.098;2023-04-24T11:51:26;1.87;;;1.50;;
18661;SDS011;61528;49.456;11.098;2023-04-24T11:53:55;2.27;;;1.60;;
18661;SDS011;61528;49.456;11.098;2023-04-24T11:56:23;2.50;;;1.60;;
18661;SDS011;61528;49.456;11.098;2023-04-24T11:58:51;1.40;;;1.30;;
18661;SDS011;61528;49.456;11.098;2023-04-24T12:01:21;2.40;;;1.47;;
18661;SDS011;61528;49.456;11.098;2023-04-24T12:03:48;1.53;;;1.40;;
18661;SDS011;61528;49.456;11.098;2023-04-24T12:06:16;1.50;;;1.40;;
18661;SDS011;61528;49.456;11.098;2023-04-24T12:08:45;1.40;;;1.30;;
18661;SDS011;61528;49.456;11.098;2023-04-24T12:11:14;2.90;;;1.40;;
18661;SDS011;61528;49.456;11.098;2023-04-24T12:13:40;1.50;;;1.20;;
18661;SDS011;61528;49.456;11.098;2023-04-24T12:16:06;1.50;;;1.40;;
18661;SDS011;61528;49.456;11.098;2023-04-24T12:18:33;1.70;;;1.60;;
18661;SDS011;61528;49.456;11.098;2023-04-24T12:23:44;1.50;;;1.40;;
18661;SDS011;61528;49.456;11.098;2023-04-24T12:26:11;2.53;;;1.67;;
18661;SDS011;61528;49.456;11.098;2023-04-24T12:28:38;3.93;;;1.87;;
18661;SDS011;61528;49.456;11.098;2023-04-24T12:31:05;1.70;;;1.60;;
18661;SDS011;61528;49.456;11.098;2023-04-24T12:33:32;1.93;;;1.47;;
18661;SDS011;61528;49.456;11.098;2023-04-24T12:35:59;1.97;;;1.77;;
18661;SDS011;61528;49.456;11.098;2023-04-24T12:38:27;1.77;;;1.57;;
18661;SDS011;61528;49.456;11.098;2023-04-24T12:41:05;1.77;;;1.53;;
18661;SDS011;61528;49.456;11.098;2023-04-24T12:43:31;2.50;;;1.30;;
18661;SDS011;61528;49.456;11.098;2023-04-24T12:45:57;1.00;;;1.00;;
18661;SDS011;61528;49.456;11.098;2023-04-24T12:48:24;1.63;;;1.00;;
18661;SDS011;61528;49.456;11.098;2023-04-24T12:50:51;1.67;;;1.30;;
18661;SDS011;61528;49.456;11.098;2023-04-24T12:53:17;3.10;;;1.20;;
18661;SDS011;61528;49.456;11.098;2023-04-24T12:55:43;1.27;;;1.20;;
18661;SDS011;61528;49.456;11.098;2023-04-24T12:58:10;1.57;;;1.30;;
18661;SDS011;61528;49.456;11.098;2023-04-24T13:00:36;1.40;;;1.30;;
18661;SDS011;61528;49.456;11.098;2023-04-24T13:03:02;1.40;;;1.30;;
18661;SDS011;61528;49.456;11.098;2023-04-24T13:05:29;2.00;;;1.30;;
18661;SDS011;61528;49.456;11.098;2023-04-24T13:07:56;1.00;;;1.00;;
18661;SDS011;61528;49.456;11.098;2023-04-24T13:10:22;1.20;;;1.03;;
18661;SDS011;61528;49.456;11.098;2023-04-24T13:12:51;1.73;;;1.17;;
18661;SDS011;61528;49.456;11.098;2023-04-24T13:15:24;2.77;;;1.40;;
18661;SDS011;61528;49.456;11.098;2023-04-24T13:17:51;1.53;;;1.23;;
18661;SDS011;61528;49.456;11.098;2023-04-24T13:20:17;2.03;;;1.47;;
18661;SDS011;61528;49.456;11.098;2023-04-24T13:22:43;1.73;;;1.20;;
18661;SDS011;61528;49.456;11.098;2023-04-24T13:25:10;1.33;;;1.23;;
18661;SDS011;61528;49.456;11.098;2023-04-24T13:27:38;1.23;;;1.20;;
18661;SDS011;61528;49.456;11.098;2023-04-24T13:30:19;1.67;;;1.57;;
18661;SDS011;61528;49.456;11.098;2023-04-24T13:32:49;1.47;;;1.37;;
18661;SDS011;61528;49.456;11.098;2023-04-24T13:35:15;2.40;;;2.10;;
18661;SDS011;61528;49.456;11.098;2023-04-24T13:37:47;1.67;;;1.57;;
18661;SDS011;61528;49.456;11.098;2023-04-24T13:40:14;2.20;;;1.80;;
18661;SDS011;61528;49.456;11.098;2023-04-24T13:42:40;2.57;;;1.50;;
18661;SDS011;61528;49.456;11.098;2023-04-24T13:45:10;1.50;;;1.40;;
18661;SDS011;61528;49.456;11.098;2023-04-24T13:47:36;2.23;;;1.80;;
18661;SDS011;61528;49.456;11.098;2023-04-24T13:50:07;1.93;;;1.80;;
18661;SDS011;61528;49.456;11.098;2023-04-24T13:52:42;3.33;;;1.90;;
18661;SDS011;61528;49.456;11.098;2023-04-24T13:55:16;1.60;;;1.50;;
18661;SDS011;61528;49.456;11.098;2023-04-24T13:57:45;1.67;;;1.50;;
18661;SDS011;61528;49.456;11.098;2023-04-24T14:00:11;1.80;;;1.70;;
18661;SDS011;61528;49.456;11.098;2023-04-24T14:02:38;2.20;;;2.00;;
18661;SDS011;61528;49.456;11.098;2023-04-24T14:05:04;2.33;;;1.83;;
18661;SDS011;61528;49.456;11.098;2023-04-24T14:07:31;2.27;;;1.93;;
18661;SDS011;61528;49.456;11.098;2023-04-24T14:09:57;2.07;;;1.87;;
18661;SDS011;61528;49.456;11.098;2023-04-24T14:12:24;1.87;;;1.77;;
18661;SDS011;61528;49.456;11.098;2023-04-24T14:14:58;2.20;;;1.70;;
18661;SDS011;61528;49.456;11.098;2023-04-24T14:17:27;2.30;;;1.77;;
18661;SDS011;61528;49.456;11.098;2023-04-24T14:19:57;2.47;;;1.90;;
18661;SDS011;61528;49.456;11.098;2023-04-24T14:22:25;2.70;;;1.73;;
18661;SDS011;61528;49.456;11.098;2023-04-24T14:24:52;2.50;;;1.90;;
18661;SDS011;61528;49.456;11.098;2023-04-24T14:27:21;1.90;;;1.70;;
18661;SDS011;61528;49.456;11.098;2023-04-24T14:29:47;2.70;;;1.80;;
18661;SDS011;61528;49.456;11.098;2023-04-24T14:32:14;2.83;;;2.00;;
18661;SDS011;61528;49.456;11.098;2023-04-24T14:34:47;2.30;;;2.00;;
18661;SDS011;61528;49.456;11.098;2023-04-24T14:37:14;2.37;;;2.17;;
18661;SDS011;61528;49.456;11.098;2023-04-24T14:39:43;1.90;;;1.70;;
18661;SDS011;61528;49.456;11.098;2023-04-24T14:42:10;2.20;;;1.70;;
18661;SDS011;61528;49.456;11.098;2023-04-24T14:44:40;4.87;;;2.10;;
18661;SDS011;61528;49.456;11.098;2023-04-24T14:47:07;1.77;;;1.50;;
18661;SDS011;61528;49.456;11.098;2023-04-24T14:49:34;3.97;;;1.87;;
18661;SDS011;61528;49.456;11.098;2023-04-24T14:52:11;1.57;;;1.47;;
18661;SDS011;61528;49.456;11.098;2023-04-24T14:54:48;2.67;;;1.83;;
18661;SDS011;61528;49.456;11.098;2023-04-24T14:57:14;2.10;;;1.90;;
18661;SDS011;61528;49.456;11.098;2023-04-24T14:59:41;2.97;;;2.50;;
18661;SDS011;61528;49.456;11.098;2023-04-24T15:02:11;2.07;;;1.87;;
18661;SDS011;61528;49.456;11.098;2023-04-24T15:04:37;1.67;;;1.57;;
18661;SDS011;61528;49.456;11.098;2023-04-24T15:07:05;1.40;;;1.30;;
18661;SDS011;61528;49.456;11.098;2023-04-24T15:09:31;2.00;;;1.67;;